Home   Weather   Germany   Rotenburg (Wümme)   Past weeks
Flag for Germany

Past Weather in Rotenburg (Wümme), Lower Saxony, Germany — Yesterday and Last 2 Weeks

Currently: 68 °F. Scattered clouds. (Weather station: Bremen Airport, Germany). See more current weather

Past Weather in Rotenburg (Wümme) — Graph

°F

Rotenburg (Wümme) Temperature Yesterday

Maximum temperature yesterday: 68 °F (at 10:20 am)
Minimum temperature yesterday: 54 °F (at 11:20 pm)
Average temperature yesterday: 63 °F

High & Low Weather Summary for the Past Weeks

 TemperatureHumidityPressure
High79 °F (Jun 3, 4:50 pm)100% (May 30, 2:50 am)30.39 "Hg (May 30, 2:50 am)
Low36 °F (May 30, 5:20 am)30% (Jun 10, 4:50 pm)29.98 "Hg (Jun 12, 5:50 am)
Average63 °F73%30.15 "Hg
* Reported May 29 1:20 pm — Jun 13 1:20 pm, Rotenburg (Wümme). Weather by CustomWeather, © 2021

Note: Actual official high and low records may vary slightly from our data, if they occured in-between our weather recording intervals... More about our weather records

Rotenburg (Wümme) Weather History for the Previous 24 Hours

Scroll right to see more
 ConditionsComfort  
Time TempWeatherWind HumidityBarometerVisibility
1:20 pm
Sun, Jun 13
66 °FScattered clouds.15 mph49%30.33 "HgN/A
12:50 pm66 °FScattered clouds.13 mph52%30.33 "HgN/A
12:20 pm64 °FScattered clouds.12 mph56%30.33 "HgN/A
11:50 am64 °FScattered clouds.14 mph52%30.33 "HgN/A
11:20 am63 °FPartly sunny.12 mph52%30.33 "HgN/A
10:50 am63 °FScattered clouds.12 mph52%30.33 "HgN/A
10:20 am63 °FScattered clouds.13 mph52%30.33 "HgN/A
9:50 am61 °FPassing clouds.12 mph59%30.33 "HgN/A
9:20 am59 °FPassing clouds.12 mph59%30.30 "HgN/A
8:50 am59 °FPassing clouds.12 mph68%30.30 "HgN/A
8:20 am57 °FPassing clouds.8 mph72%30.30 "HgN/A
7:50 am55 °FSunny.9 mph77%30.30 "Hg10 mi
7:20 am54 °FSunny.6 mph82%30.27 "Hg10 mi
6:50 am50 °FPassing clouds.6 mph94%30.27 "HgN/A
6:20 am46 °FPassing clouds.5 mph93%30.27 "HgN/A
5:50 am45 °FPassing clouds.6 mph93%30.27 "HgN/A
5:20 am45 °FPassing clouds.5 mph93%30.27 "HgN/A
4:50 am45 °FPassing clouds.6 mph93%30.27 "HgN/A
4:20 am45 °FPassing clouds.6 mph93%30.24 "HgN/A
3:50 am46 °FClear.5 mph93%30.24 "Hg10 mi
3:20 am48 °FClear.6 mph87%30.24 "Hg10 mi
2:50 am48 °FClear.6 mph87%30.24 "Hg10 mi
2:20 am48 °FClear.6 mph87%30.24 "Hg10 mi
1:50 am50 °FClear.7 mph88%30.24 "Hg10 mi
1:20 am52 °FPassing clouds.7 mph82%30.24 "HgN/A
12:50 am52 °FPassing clouds.8 mph82%30.21 "HgN/A
12:20 am52 °FPassing clouds.6 mph82%30.21 "HgN/A
11:50 pm
Sat, Jun 12
54 °FPassing clouds.9 mph77%30.21 "HgN/A
11:20 pm54 °FPassing clouds.9 mph77%30.21 "HgN/A
10:50 pm55 °FPassing clouds.12 mph72%30.21 "HgN/A
10:20 pm57 °FPassing clouds.15 mph67%30.18 "HgN/A
9:50 pm57 °FPassing clouds.16 mph72%30.18 "HgN/A
9:20 pm59 °FPassing clouds.17 mph68%30.15 "HgN/A
8:50 pm59 °FPassing clouds.13 mph68%30.15 "HgN/A
8:20 pm61 °FPassing clouds.17 mph59%30.15 "HgN/A
7:50 pm61 °FScattered clouds.18 mph68%30.12 "HgN/A
7:20 pm61 °FScattered clouds.22 mph59%30.12 "HgN/A
6:50 pm64 °FScattered clouds.24 mph52%30.12 "HgN/A
6:20 pm64 °FScattered clouds.20 mph52%30.09 "HgN/A
5:50 pm64 °FScattered clouds.18 mph56%30.09 "HgN/A
5:20 pm64 °FScattered clouds.22 mph52%30.09 "HgN/A
4:50 pm66 °FScattered clouds.23 mph49%30.09 "HgN/A
4:20 pm68 °FScattered clouds.24 mph49%30.07 "HgN/A
3:50 pm66 °FScattered clouds.21 mph52%30.07 "HgN/A
3:20 pm68 °FScattered clouds.22 mph49%30.07 "HgN/A
2:50 pm68 °FScattered clouds.22 mph46%30.04 "HgN/A
2:20 pm68 °FScattered clouds.17 mph53%30.04 "HgN/A
Weather by CustomWeather, © 2021

See weather overview